createdAt,value
2019-04-20T00:00:10.961Z,10.0061
2019-04-20T00:01:19.967Z,10.5295
2019-04-20T00:02:25.455Z,10.1049
2019-04-20T00:03:30.922Z,9.8940
2019-04-20T00:04:37.393Z,9.9794
2019-04-20T00:05:41.359Z,10.1183
2019-04-20T00:06:49.421Z,10.1049
2019-04-20T00:07:52.279Z,10.2464
2019-04-20T00:09:03.524Z,10.4868
2019-04-20T00:10:10.926Z,10.5722
2019-04-20T00:11:17.869Z,10.4467
2019-04-20T00:12:33.452Z,10.0488
2019-04-20T00:13:39.281Z,9.6242
2019-04-20T00:14:37.407Z,9.3011
2019-04-20T00:15:43.029Z,9.2718
2019-04-20T00:16:48.236Z,9.3999
2019-04-20T00:17:56.239Z,9.2718
2019-04-20T00:19:03.132Z,9.2023
2019-04-20T00:20:15.514Z,9.1169
2019-04-20T00:21:16.455Z,9.3278
2019-04-20T00:22:26.115Z,9.3999
2019-04-20T00:23:34.795Z,9.3412
2019-04-20T00:24:38.616Z,9.4400
2019-04-20T00:25:53.149Z,9.2023
2019-04-20T00:27:22.070Z,9.0047
2019-04-20T00:28:16.321Z,9.0341
2019-04-20T00:29:25.118Z,9.0742
2019-04-20T00:30:36.622Z,9.0608
2019-04-20T00:31:42.090Z,8.9326
2019-04-20T00:32:46.637Z,8.5508
2019-04-20T00:33:50.659Z,8.5241
2019-04-20T00:34:49.536Z,9.4400
2019-04-20T00:35:54.861Z,9.7951
2019-04-20T00:36:58.136Z,9.3999
2019-04-20T00:38:01.314Z,9.5254
2019-04-20T00:39:05.986Z,9.4560
2019-04-20T00:40:11.187Z,9.2157
2019-04-20T00:41:17.068Z,9.2290
2019-04-20T00:42:30.309Z,9.7391
2019-04-20T00:43:32.879Z,9.5254
2019-04-20T00:44:39.479Z,9.5522
2019-04-20T00:45:51.552Z,9.5254
2019-04-20T00:47:04.299Z,9.6242
2019-04-20T00:48:06.787Z,9.6670
2019-04-20T00:49:29.277Z,9.6830
2019-04-20T00:50:34.198Z,9.6963
2019-04-20T00:51:39.555Z,9.9634
2019-04-20T00:52:50.879Z,9.9073
2019-04-20T00:53:46.770Z,9.7257
2019-04-20T00:54:49.848Z,9.5388
2019-04-20T00:55:52.965Z,9.6109
2019-04-20T00:57:07.802Z,10.0061
2019-04-20T00:58:14.369Z,10.0916
2019-04-20T00:59:25.402Z,9.7951
2019-04-20T01:00:37.174Z,9.5522
2019-04-20T01:01:48.963Z,9.4827
2019-04-20T01:02:47.313Z,9.8940
2019-04-20T01:04:06.713Z,10.1183
2019-04-20T01:05:12.616Z,10.2598
2019-04-20T01:06:19.296Z,10.1904
2019-04-20T01:07:23.277Z,9.6963
2019-04-20T01:08:15.313Z,9.6670
2019-04-20T01:09:18.330Z,9.3706
2019-04-20T01:10:21.625Z,9.7257
2019-04-20T01:11:33.161Z,9.5682
2019-04-20T01:12:35.561Z,9.3839
2019-04-20T01:13:48.719Z,9.9073
2019-04-20T01:14:55.802Z,9.5121
2019-04-20T01:16:05.213Z,9.7951
2019-04-20T01:17:11.675Z,10.1343
2019-04-20T01:18:15.241Z,10.0755
2019-04-20T01:19:19.291Z,10.4868
2019-04-20T01:20:26.371Z,9.8245
2019-04-20T01:21:33.453Z,9.4961
2019-04-20T01:22:45.493Z,9.2157
2019-04-20T01:23:52.536Z,9.3706
2019-04-20T01:24:53.666Z,9.1463
2019-04-20T01:26:04.028Z,8.8338
2019-04-20T01:27:16.947Z,8.5668
2019-04-20T01:28:32.392Z,8.4253
2019-04-20T01:29:34.950Z,8.8045
2019-04-20T01:30:37.723Z,9.2290
2019-04-20T01:31:55.713Z,9.5388
2019-04-20T01:32:59.952Z,9.9794
2019-04-20T01:34:04.279Z,9.4560
2019-04-20T01:35:18.115Z,9.2023
2019-04-20T01:36:34.978Z,8.9033
2019-04-20T01:37:33.784Z,8.6229
2019-04-20T01:38:44.714Z,8.3398
2019-04-20T01:39:43.197Z,8.8045
2019-04-20T01:40:44.375Z,8.8766
2019-04-20T01:41:47.553Z,9.0742
2019-04-20T01:42:51.185Z,9.4266
2019-04-20T01:43:54.459Z,9.6376
2019-04-20T01:44:58.692Z,9.7951
2019-04-20T01:46:09.324Z,9.0181
2019-04-20T01:47:12.098Z,8.9620
2019-04-20T01:48:23.949Z,8.7484
2019-04-20T01:49:27.750Z,8.8766
2019-04-20T01:50:35.338Z,8.5374
2019-04-20T01:51:52.516Z,8.5107
2019-04-20T01:53:01.589Z,8.3959
2019-04-20T01:54:11.765Z,8.3959
2019-04-20T01:55:24.775Z,8.2277
2019-04-20T01:56:27.308Z,8.2010
2019-04-20T01:57:27.192Z,8.8766
2019-04-20T01:58:47.078Z,9.0181
2019-04-20T01:59:49.225Z,8.8899
2019-04-20T02:00:48.124Z,8.4253
2019-04-20T02:01:59.225Z,8.1849
2019-04-20T02:03:03.673Z,8.7617
2019-04-20T02:04:17.124Z,8.7350
2019-04-20T02:05:24.926Z,8.7911
2019-04-20T02:06:28.312Z,8.4813
2019-04-20T02:07:40.022Z,8.3959
2019-04-20T02:08:42.059Z,8.4813
2019-04-20T02:09:53.565Z,8.4947
2019-04-20T02:10:57.646Z,8.2837
2019-04-20T02:12:08.404Z,8.5374
2019-04-20T02:13:11.087Z,8.9620
2019-04-20T02:14:24.286Z,9.1463
2019-04-20T02:15:31.011Z,8.2971
2019-04-20T02:16:37.242Z,9.0902
2019-04-20T02:17:44.141Z,9.6670
2019-04-20T02:19:08.250Z,9.9233
2019-04-20T02:20:10.722Z,9.7524
2019-04-20T02:21:19.932Z,9.2851
2019-04-20T02:22:29.862Z,9.1302
2019-04-20T02:23:33.075Z,9.0902
2019-04-20T02:24:27.832Z,9.0902
2019-04-20T02:25:31.253Z,8.9754
2019-04-20T02:26:34.765Z,8.4253
2019-04-20T02:27:43.293Z,9.4961
2019-04-20T02:29:14.544Z,9.0181
2019-04-20T02:30:25.694Z,9.1169
2019-04-20T02:31:58.939Z,9.1035
2019-04-20T02:32:40.181Z,8.6790
2019-04-20T02:33:51.849Z,8.7778
2019-04-20T02:35:03.419Z,8.9166
2019-04-20T02:37:19.386Z,8.9326
2019-04-20T02:38:22.574Z,8.3825
2019-04-20T02:39:37.598Z,8.3825
2019-04-20T02:41:57.868Z,8.2570
2019-04-20T02:43:02.065Z,8.4119
2019-04-20T02:45:18.762Z,7.6215
2019-04-20T02:46:22.507Z,7.5628
2019-04-20T02:47:37.534Z,7.5921
2019-04-20T02:48:31.799Z,7.8031
2019-04-20T02:50:50.137Z,7.9286
2019-04-20T02:52:17.143Z,8.0835
2019-04-20T02:53:15.661Z,8.5935
2019-04-20T02:55:23.517Z,8.5935
2019-04-20T02:57:47.254Z,8.1395
2019-04-20T02:58:59.612Z,7.9019
2019-04-20T03:00:52.286Z,7.7737
2019-04-20T03:01:52.144Z,7.5227
2019-04-20T03:02:59.983Z,7.7737
2019-04-20T03:03:59.762Z,7.5628
2019-04-20T03:05:18.915Z,7.5628
2019-04-20T03:06:22.991Z,7.7470
2019-04-20T03:07:34.306Z,7.4372
2019-04-20T03:08:52.709Z,7.5628
2019-04-20T03:09:58.426Z,7.4933
2019-04-20T03:11:08.941Z,7.4800
2019-04-20T03:12:18.732Z,7.8885
2019-04-20T03:13:18.792Z,7.5494
2019-04-20T03:14:21.807Z,7.6776
2019-04-20T03:15:37.932Z,7.7604
2019-04-20T03:16:38.540Z,7.7604
2019-04-20T03:17:51.216Z,7.5494
2019-04-20T03:18:53.531Z,7.9286
2019-04-20T03:20:00.698Z,8.0274
2019-04-20T03:21:21.428Z,7.4800
2019-04-20T03:22:29.206Z,8.2570
2019-04-20T03:23:35.316Z,8.7057
2019-04-20T03:24:46.995Z,8.1395
2019-04-20T03:25:55.657Z,8.3825
2019-04-20T03:26:54.679Z,8.5107
2019-04-20T03:28:05.205Z,8.1128
2019-04-20T03:29:05.361Z,8.1689
2019-04-20T03:30:58.746Z,8.0434
2019-04-20T03:31:54.038Z,8.6496
2019-04-20T03:33:06.964Z,8.4520
2019-04-20T03:34:23.561Z,8.1556
2019-04-20T03:35:10.042Z,8.6790
2019-04-20T03:36:16.097Z,8.2570
2019-04-20T03:37:17.114Z,8.4119
2019-04-20T03:38:20.197Z,8.5508
2019-04-20T03:39:23.287Z,8.1556
2019-04-20T03:40:29.915Z,8.2010
2019-04-20T03:41:32.303Z,8.5107
2019-04-20T03:42:31.198Z,8.3265
2019-04-20T03:43:34.961Z,8.5802
2019-04-20T03:44:39.457Z,7.7470
2019-04-20T03:45:54.308Z,8.2971
2019-04-20T03:46:59.673Z,7.8031
2019-04-20T03:48:12.558Z,7.9446
2019-04-20T03:49:40.896Z,7.8885
2019-04-20T03:50:42.473Z,8.0701
2019-04-20T03:51:51.853Z,8.3692
2019-04-20T03:52:57.782Z,8.4386
2019-04-20T03:53:58.849Z,8.5802
2019-04-20T03:55:12.843Z,8.6923
2019-04-20T03:56:26.406Z,8.7350
2019-04-20T03:57:26.521Z,8.7484
2019-04-20T03:58:35.911Z,7.9580
2019-04-20T03:59:47.556Z,8.5668
2019-04-20T04:00:45.763Z,7.9873
2019-04-20T04:02:17.094Z,8.5107
2019-04-20T04:03:12.843Z,7.7470
2019-04-20T04:04:16.761Z,8.2704
2019-04-20T04:05:19.224Z,8.2277
2019-04-20T04:06:23.443Z,7.8031
2019-04-20T04:07:29.550Z,8.0568
2019-04-20T04:08:35.313Z,9.1463
2019-04-20T04:09:47.118Z,8.6069
2019-04-20T04:11:03.237Z,8.4119
2019-04-20T04:12:07.718Z,8.2837
2019-04-20T04:13:01.093Z,9.0047
2019-04-20T04:14:05.018Z,8.4813
2019-04-20T04:15:08.525Z,8.9166
2019-04-20T04:16:14.668Z,8.9914
2019-04-20T04:17:26.953Z,8.8766
2019-04-20T04:18:34.686Z,8.7778
2019-04-20T04:19:38.776Z,8.4253
2019-04-20T04:20:49.776Z,9.6963
2019-04-20T04:22:04.122Z,8.6362
2019-04-20T04:23:15.066Z,8.4520
2019-04-20T04:24:22.907Z,8.1128
2019-04-20T04:25:28.783Z,8.2277
2019-04-20T04:26:39.106Z,8.5374
2019-04-20T04:27:49.004Z,8.0701
2019-04-20T04:28:53.755Z,9.1302
2019-04-20T04:30:07.726Z,9.0902
2019-04-20T04:31:14.672Z,8.8899
2019-04-20T04:32:33.262Z,8.4253
2019-04-20T04:34:40.513Z,8.2410
2019-04-20T04:35:44.373Z,8.0835
2019-04-20T04:36:59.415Z,8.2410
2019-04-20T04:38:02.690Z,7.9713
2019-04-20T04:39:19.272Z,7.8885
2019-04-20T04:40:26.523Z,8.0701
2019-04-20T04:41:26.847Z,7.8458
2019-04-20T04:42:42.580Z,7.8725
2019-04-20T04:43:44.116Z,7.5227
2019-04-20T04:44:44.709Z,7.9286
2019-04-20T04:45:42.676Z,7.9713
2019-04-20T04:46:53.760Z,7.8592
2019-04-20T04:47:53.673Z,7.6482
2019-04-20T04:49:06.806Z,7.8031
2019-04-20T04:50:12.669Z,7.4800
2019-04-20T04:51:20.022Z,7.9580
2019-04-20T04:52:29.427Z,8.1395
2019-04-20T04:53:43.016Z,8.0007
2019-04-20T04:54:45.385Z,8.1395
2019-04-20T04:55:54.134Z,7.6909
2019-04-20T04:56:52.588Z,7.9713
2019-04-20T04:57:55.825Z,7.8885
2019-04-20T04:58:58.284Z,7.4506
2019-04-20T05:00:01.544Z,7.4666
2019-04-20T05:01:08.348Z,7.7176
2019-04-20T05:02:12.201Z,7.6909
2019-04-20T05:03:35.377Z,7.7337
2019-04-20T05:04:49.604Z,7.8592
2019-04-20T05:05:49.927Z,7.9019
2019-04-20T05:06:53.580Z,7.8031
2019-04-20T05:07:59.458Z,8.0568
2019-04-20T05:09:00.236Z,8.2971
2019-04-20T05:10:03.797Z,7.9873
2019-04-20T05:11:06.908Z,8.2971
2019-04-20T05:12:17.208Z,8.0007
2019-04-20T05:13:18.190Z,8.2971
2019-04-20T05:14:27.081Z,9.0047
2019-04-20T05:15:42.454Z,8.6790
2019-04-20T05:16:51.273Z,8.5802
2019-04-20T05:18:06.005Z,8.0835
2019-04-20T05:19:13.508Z,8.1395
2019-04-20T05:20:17.143Z,7.9873
2019-04-20T05:21:25.504Z,7.8031
2019-04-20T05:22:38.974Z,7.4372
2019-04-20T05:23:35.117Z,7.5494
2019-04-20T05:24:53.742Z,7.6776
2019-04-20T05:26:02.612Z,7.4506
2019-04-20T05:27:17.694Z,7.1942
2019-04-20T05:28:14.021Z,7.1248
2019-04-20T05:29:13.422Z,7.1248
2019-04-20T05:30:12.185Z,7.5494
2019-04-20T05:31:16.712Z,7.6776
2019-04-20T05:32:32.584Z,7.4800
2019-04-20T05:33:49.774Z,7.4239
2019-04-20T05:34:58.214Z,7.4506
2019-04-20T05:36:09.966Z,7.5227
2019-04-20T05:37:20.910Z,7.6616
2019-04-20T05:38:27.508Z,9.0181
2019-04-20T05:39:36.852Z,7.8031
2019-04-20T05:40:44.379Z,7.9580
2019-04-20T05:41:41.995Z,7.6776
2019-04-20T05:42:55.657Z,7.7176
2019-04-20T05:43:56.119Z,7.5067
2019-04-20T05:45:08.699Z,7.4933
2019-04-20T05:46:19.511Z,7.8164
2019-04-20T05:47:22.712Z,8.6069
2019-04-20T05:48:32.019Z,8.8605
2019-04-20T05:49:34.883Z,9.1730
2019-04-20T05:50:48.223Z,9.4560
2019-04-20T05:51:54.487Z,9.6109
2019-04-20T05:53:09.935Z,9.9073
2019-04-20T05:54:17.794Z,9.9794
2019-04-20T05:55:22.417Z,10.3025
2019-04-20T05:56:35.806Z,11.0075
2019-04-20T05:57:40.111Z,10.8125
2019-04-20T05:58:45.082Z,10.7832
2019-04-20T06:00:03.577Z,11.3760
2019-04-20T06:01:08.863Z,11.5175
2019-04-20T06:02:09.704Z,11.1944
2019-04-20T06:03:18.453Z,12.0115
2019-04-20T06:04:42.725Z,11.9982
2019-04-20T06:05:36.979Z,12.7325
2019-04-20T06:06:44.651Z,11.7739
2019-04-20T06:07:48.861Z,11.6857
2019-04-20T06:09:05.515Z,11.6857
2019-04-20T06:10:00.233Z,11.8433
2019-04-20T06:11:17.930Z,13.0289
2019-04-20T06:12:19.949Z,11.9421
2019-04-20T06:13:23.988Z,12.3507
2019-04-20T06:14:28.591Z,11.7872
2019-04-20T06:15:46.678Z,11.8433
2019-04-20T06:17:00.038Z,11.5309
2019-04-20T06:17:58.379Z,11.8299
2019-04-20T06:19:24.213Z,11.8433
2019-04-20T06:20:19.421Z,11.8566
2019-04-20T06:21:35.386Z,11.8166
2019-04-20T06:22:36.483Z,12.2251
2019-04-20T06:23:47.703Z,11.9421
2019-04-20T06:24:53.063Z,11.8433
2019-04-20T06:26:14.908Z,12.1263
2019-04-20T06:27:03.265Z,11.9554
2019-04-20T06:28:12.814Z,12.6764
2019-04-20T06:29:20.507Z,12.0542
2019-04-20T06:30:26.259Z,12.5082
2019-04-20T06:31:37.033Z,12.2091
2019-04-20T06:32:44.202Z,12.3507
2019-04-20T06:34:11.370Z,12.8874
2019-04-20T06:35:04.449Z,12.5643
2019-04-20T06:37:23.452Z,12.6631
2019-04-20T06:38:49.728Z,12.4067
2019-04-20T06:39:54.381Z,13.8220
2019-04-20T06:41:02.314Z,12.9728
2019-04-20T06:42:07.101Z,14.3294
2019-04-20T06:43:04.102Z,14.7539
2019-04-20T06:44:17.710Z,14.0463
2019-04-20T06:45:28.118Z,13.5950
2019-04-20T06:46:31.667Z,12.8740
2019-04-20T06:47:39.717Z,13.7205
2019-04-20T06:48:50.018Z,14.1745
2019-04-20T06:49:45.382Z,13.8914
2019-04-20T06:52:15.503Z,14.1451
2019-04-20T06:53:31.061Z,13.8514
2019-04-20T06:54:13.371Z,14.3721
2019-04-20T06:55:38.594Z,14.2866
2019-04-20T06:56:42.554Z,14.5003
2019-04-20T06:58:04.285Z,14.3854
2019-04-20T06:58:57.726Z,13.7339
2019-04-20T07:00:08.779Z,13.7072
2019-04-20T07:01:13.700Z,14.9088
2019-04-20T07:03:42.190Z,14.5003
2019-04-20T07:05:45.333Z,15.3334
2019-04-20T07:06:59.146Z,15.1785
2019-04-20T07:08:16.669Z,14.8527
2019-04-20T07:09:13.890Z,15.2907
2019-04-20T07:10:18.277Z,14.8795
2019-04-20T07:11:25.009Z,14.7673
2019-04-20T07:12:31.160Z,15.1465
2019-04-20T07:13:30.898Z,17.0691
2019-04-20T07:15:49.648Z,16.3909
2019-04-20T07:17:10.727Z,15.5711
2019-04-20T07:18:15.682Z,14.1451
2019-04-20T07:19:18.957Z,15.3334
2019-04-20T07:20:35.092Z,16.9997
2019-04-20T07:21:55.378Z,15.9262
2019-04-20T07:22:47.892Z,17.0264
2019-04-20T07:23:56.074Z,16.1238
2019-04-20T07:25:02.378Z,17.3255
2019-04-20T07:26:21.128Z,15.8995
2019-04-20T07:27:19.659Z,16.8582
2019-04-20T07:28:32.894Z,15.5150
2019-04-20T07:29:51.833Z,15.2052
2019-04-20T07:30:42.095Z,15.9556
2019-04-20T07:31:47.465Z,15.0076
2019-04-20T07:32:57.958Z,15.8114
2019-04-20T07:34:03.729Z,16.0250
2019-04-20T07:35:14.152Z,15.5577
2019-04-20T07:36:28.993Z,15.1785
2019-04-20T07:38:40.131Z,16.0811
2019-04-20T07:39:47.774Z,17.2107
2019-04-20T07:40:56.008Z,16.6899
2019-04-20T07:42:08.492Z,17.0264
2019-04-20T07:43:07.732Z,16.1666
2019-04-20T07:44:29.598Z,16.3348
2019-04-20T07:45:30.763Z,16.6899
2019-04-20T07:46:47.501Z,16.1532
2019-04-20T07:47:46.663Z,16.9436
2019-04-20T07:48:54.295Z,16.5618
2019-04-20T07:49:56.494Z,15.5016
2019-04-20T07:50:57.996Z,17.0130
2019-04-20T07:51:55.583Z,17.4804
2019-04-20T07:53:12.309Z,16.5911
2019-04-20T07:54:40.179Z,16.8021
2019-04-20T07:57:48.810Z,16.9009
2019-04-20T07:58:47.955Z,16.6472
2019-04-20T08:00:06.396Z,15.7420
2019-04-20T08:01:23.161Z,17.0825
2019-04-20T08:02:33.351Z,15.6699
2019-04-20T08:03:39.361Z,16.5911
2019-04-20T08:04:39.034Z,16.5190
2019-04-20T08:05:39.458Z,16.9009
2019-04-20T08:06:43.151Z,16.3642
2019-04-20T08:07:53.644Z,16.7460
2019-04-20T08:09:10.075Z,16.2921
2019-04-20T08:10:09.037Z,17.7207
2019-04-20T08:11:32.069Z,17.9183
2019-04-20T08:12:43.825Z,17.4243
2019-04-20T08:13:51.317Z,17.1546
2019-04-20T08:15:04.738Z,16.8582
2019-04-20T08:16:06.734Z,18.0465
2019-04-20T08:17:26.807Z,17.4510
2019-04-20T08:18:27.164Z,15.8408
2019-04-20T08:19:27.298Z,17.3522
2019-04-20T08:20:43.610Z,17.7207
2019-04-20T08:21:47.525Z,18.3402
2019-04-20T08:22:53.194Z,18.2013
2019-04-20T08:24:02.506Z,18.9197
2019-04-20T08:25:06.996Z,17.0985
2019-04-20T08:26:06.664Z,17.2107
2019-04-20T08:27:09.126Z,17.0825
2019-04-20T08:28:21.411Z,18.2280
2019-04-20T08:29:33.641Z,18.7942
2019-04-20T08:30:47.075Z,16.1238
2019-04-20T08:31:56.288Z,16.6899
2019-04-20T08:33:05.236Z,17.0985
2019-04-20T08:34:24.723Z,17.0691
2019-04-20T08:35:28.572Z,18.7087
2019-04-20T08:36:34.590Z,18.2280
2019-04-20T08:37:50.553Z,18.4817
2019-04-20T08:40:01.466Z,17.7768
2019-04-20T08:41:02.592Z,18.2708
2019-04-20T08:42:13.079Z,16.7327
2019-04-20T08:43:37.916Z,17.6486
2019-04-20T08:44:48.367Z,17.0825
2019-04-20T08:45:45.734Z,18.0892
2019-04-20T08:46:56.649Z,17.3949
2019-04-20T08:48:09.747Z,18.6393
2019-04-20T08:49:08.368Z,19.6700
2019-04-20T08:50:29.619Z,18.3268
2019-04-20T08:51:14.616Z,18.4123
2019-04-20T08:52:58.664Z,17.1252
2019-04-20T08:53:42.080Z,18.9490
2019-04-20T08:54:41.436Z,19.0185
2019-04-20T08:55:49.140Z,19.5712
2019-04-20T08:56:49.880Z,20.7168
2019-04-20T08:57:51.504Z,19.0345
2019-04-20T08:58:55.088Z,18.4123
2019-04-20T09:00:00.647Z,19.2721
2019-04-20T09:01:08.637Z,20.5032
2019-04-20T09:02:15.739Z,19.3309
2019-04-20T09:03:25.434Z,19.3736
2019-04-20T09:04:40.283Z,18.3001
2019-04-20T09:05:51.258Z,17.7901
2019-04-20T09:06:59.739Z,18.7942
2019-04-20T09:08:02.522Z,18.3696
2019-04-20T09:09:29.029Z,18.2147
2019-04-20T09:10:28.188Z,18.1586
2019-04-20T09:11:30.935Z,19.3175
2019-04-20T09:12:42.159Z,19.0612
2019-04-20T09:13:40.500Z,19.2294
2019-04-20T09:14:40.272Z,19.1600
2019-04-20T09:15:44.749Z,18.1453
2019-04-20T09:16:54.525Z,19.5418
2019-04-20T09:18:00.676Z,18.3268
2019-04-20T09:19:07.612Z,19.0612
2019-04-20T09:20:16.448Z,20.2201
2019-04-20T09:21:29.618Z,20.2922
2019-04-20T09:22:34.287Z,19.9825
2019-04-20T09:23:46.886Z,19.4991
2019-04-20T09:25:12.305Z,19.7127
2019-04-20T09:26:12.840Z,19.6700
2019-04-20T09:27:12.949Z,18.0892
2019-04-20T09:28:19.789Z,20.2762
2019-04-20T09:29:31.862Z,19.7127
2019-04-20T09:30:37.297Z,20.0652
2019-04-20T09:31:50.272Z,19.9825
2019-04-20T09:32:59.531Z,20.2201
2019-04-20T09:34:07.439Z,20.0385
2019-04-20T09:35:17.320Z,20.9705
2019-04-20T09:36:17.910Z,20.5886
2019-04-20T09:37:30.988Z,20.0225
2019-04-20T09:38:34.848Z,18.6526
2019-04-20T09:39:38.354Z,20.1213
2019-04-20T09:40:57.245Z,19.4030
2019-04-20T09:41:59.850Z,19.9958
2019-04-20T09:42:55.180Z,19.4030
2019-04-20T09:44:00.379Z,19.5979
2019-04-20T09:45:04.922Z,18.8502
2019-04-20T09:46:10.179Z,20.1373
2019-04-20T09:47:14.146Z,21.0986
2019-04-20T09:48:25.286Z,21.0266
2019-04-20T09:49:40.179Z,20.6447
2019-04-20T09:50:55.394Z,20.2628
2019-04-20T09:51:59.815Z,20.9277
2019-04-20T09:53:04.059Z,21.0666
2019-04-20T09:54:17.021Z,20.7301
2019-04-20T09:55:18.170Z,19.6139
2019-04-20T09:56:29.698Z,19.2294
2019-04-20T09:57:37.934Z,20.3616
2019-04-20T09:58:50.907Z,20.1507
2019-04-20T09:59:57.646Z,20.7862
2019-04-20T10:01:03.333Z,20.2628
2019-04-20T10:02:07.045Z,20.0225
2019-04-20T10:03:06.723Z,20.1080
2019-04-20T10:04:09.186Z,20.3323
2019-04-20T10:05:13.485Z,21.3096
2019-04-20T10:06:18.861Z,21.2535
2019-04-20T10:07:26.222Z,21.3951
2019-04-20T10:08:40.367Z,21.2242
2019-04-20T10:09:44.545Z,21.2402
2019-04-20T10:10:49.428Z,20.9545
2019-04-20T10:11:55.297Z,20.2628
2019-04-20T10:12:58.810Z,19.7955
2019-04-20T10:14:02.030Z,20.3483
2019-04-20T10:15:12.442Z,20.1640
2019-04-20T10:16:13.550Z,20.8423
2019-04-20T10:17:16.203Z,20.6874
2019-04-20T10:18:19.732Z,20.2628
2019-04-20T10:19:26.660Z,21.4218
2019-04-20T10:20:34.547Z,21.5927
2019-04-20T10:21:39.193Z,21.3523
2019-04-20T10:22:42.583Z,21.5339
2019-04-20T10:23:45.212Z,21.1975
2019-04-20T10:24:50.323Z,20.9705
2019-04-20T10:25:54.364Z,21.3390
2019-04-20T10:26:58.649Z,21.1280
2019-04-20T10:28:01.392Z,19.9237
2019-04-20T10:29:07.882Z,20.3323
2019-04-20T10:30:12.465Z,20.2922
2019-04-20T10:31:15.178Z,20.8156
2019-04-20T10:32:19.604Z,20.2922
2019-04-20T10:33:22.190Z,21.2108
2019-04-20T10:34:26.325Z,21.8624
2019-04-20T10:35:29.772Z,22.0306
2019-04-20T10:36:33.337Z,20.6180
2019-04-20T10:37:37.641Z,21.2829
2019-04-20T10:38:40.245Z,21.0853
2019-04-20T10:39:44.663Z,20.9277
2019-04-20T10:40:57.203Z,21.0853
2019-04-20T10:41:57.647Z,21.5206
2019-04-20T10:43:03.172Z,20.8289
2019-04-20T10:44:09.076Z,20.4471
2019-04-20T10:45:12.872Z,20.9277
2019-04-20T10:46:17.318Z,21.5206
2019-04-20T10:47:21.138Z,20.9705
2019-04-20T10:48:24.165Z,20.1080
2019-04-20T10:49:27.214Z,21.3951
2019-04-20T10:50:32.928Z,21.1681
2019-04-20T10:51:36.208Z,21.1975
2019-04-20T10:52:38.207Z,21.1547
2019-04-20T10:53:42.393Z,22.0760
2019-04-20T10:54:45.196Z,20.9411
2019-04-20T10:55:49.448Z,21.7342
2019-04-20T10:56:52.809Z,20.8289
2019-04-20T10:57:55.602Z,20.6741
2019-04-20T10:58:58.401Z,21.0666
2019-04-20T11:00:01.731Z,20.7301
2019-04-20T11:01:04.308Z,21.4218
2019-04-20T11:02:07.917Z,21.5072
2019-04-20T11:03:11.198Z,21.9879
2019-04-20T11:04:14.697Z,22.0172
2019-04-20T11:05:17.192Z,21.4645
2019-04-20T11:06:20.618Z,21.4218
2019-04-20T11:07:23.198Z,21.5793
2019-04-20T11:08:26.588Z,22.6127
2019-04-20T11:09:29.202Z,21.7475
2019-04-20T11:10:49.417Z,22.0306
2019-04-20T11:11:40.785Z,22.0573
2019-04-20T11:12:42.727Z,22.3857
2019-04-20T11:13:45.626Z,23.4886
2019-04-20T11:14:52.223Z,22.3270
2019-04-20T11:15:57.231Z,22.2015
2019-04-20T11:17:02.592Z,21.9879
2019-04-20T11:18:07.209Z,22.4685
2019-04-20T11:19:11.515Z,21.8196
2019-04-20T11:20:15.166Z,22.1321
2019-04-20T11:21:19.536Z,21.0666
2019-04-20T11:22:22.315Z,22.0573
2019-04-20T11:23:26.508Z,22.6688
2019-04-20T11:24:30.268Z,22.6822
2019-04-20T11:25:34.214Z,22.7943
2019-04-20T11:26:41.442Z,22.0893
2019-04-20T11:27:45.972Z,21.7342
2019-04-20T11:28:50.380Z,21.1841
2019-04-20T11:29:54.087Z,20.8717
2019-04-20T11:30:58.418Z,21.5633
2019-04-20T11:32:03.017Z,22.1321
2019-04-20T11:33:06.969Z,23.4325
2019-04-20T11:34:14.979Z,24.1535
2019-04-20T11:35:27.851Z,24.3938
2019-04-20T11:36:28.228Z,21.9879
2019-04-20T11:37:33.117Z,23.0213
2019-04-20T11:38:36.181Z,23.2483
2019-04-20T11:39:39.092Z,22.4685
2019-04-20T11:40:42.292Z,22.3430
2019-04-20T11:41:45.728Z,21.6220
2019-04-20T11:42:48.203Z,22.6394
2019-04-20T11:43:51.535Z,22.5834
2019-04-20T11:44:55.249Z,22.1881
2019-04-20T11:45:58.471Z,22.7943
2019-04-20T11:47:02.891Z,23.4726
2019-04-20T11:48:07.514Z,22.9652
2019-04-20T11:49:10.211Z,21.9879
2019-04-20T11:50:13.670Z,23.1067
2019-04-20T11:51:16.969Z,23.3337
2019-04-20T11:52:21.424Z,22.7810
2019-04-20T11:53:26.935Z,23.2910
2019-04-20T11:54:32.401Z,23.3898
2019-04-20T11:55:36.260Z,24.3244
2019-04-20T11:56:43.542Z,24.8878
2019-04-20T11:57:49.138Z,23.7289
2019-04-20T11:58:53.129Z,22.5994
2019-04-20T11:59:57.170Z,22.5834
2019-04-20T12:01:08.508Z,22.8504
2019-04-20T12:02:10.774Z,23.7289
2019-04-20T12:03:24.866Z,22.9358
2019-04-20T12:04:34.084Z,23.3043
2019-04-20T12:05:38.143Z,22.4552
2019-04-20T12:06:41.059Z,23.8144
2019-04-20T12:07:44.815Z,23.4165
2019-04-20T12:08:48.918Z,23.3177
2019-04-20T12:09:53.415Z,22.8798
2019-04-20T12:10:59.502Z,22.6127
2019-04-20T12:12:16.800Z,23.4459
2019-04-20T12:13:14.410Z,23.3177
2019-04-20T12:14:18.847Z,22.3137
2019-04-20T12:15:22.466Z,23.5153
2019-04-20T12:16:25.691Z,23.8838
2019-04-20T12:17:29.343Z,22.8370
2019-04-20T12:18:32.191Z,23.2483
2019-04-20T12:19:36.692Z,21.9318
2019-04-20T12:20:40.866Z,21.9451
2019-04-20T12:21:45.501Z,21.8757
2019-04-20T12:22:48.407Z,22.8664
2019-04-20T12:23:51.926Z,23.0667
2019-04-20T12:24:56.225Z,22.9652
2019-04-20T12:25:59.838Z,23.0053
2019-04-20T12:27:04.775Z,22.9358
2019-04-20T12:28:09.446Z,24.0974
2019-04-20T12:29:14.048Z,23.4325
2019-04-20T12:30:17.563Z,23.5874
2019-04-20T12:31:23.757Z,25.0881
2019-04-20T12:32:36.437Z,24.9439
2019-04-20T12:33:36.816Z,25.3845
2019-04-20T12:34:41.259Z,22.8798
2019-04-20T12:35:44.506Z,22.6955
2019-04-20T12:36:48.893Z,23.1495
2019-04-20T12:37:52.211Z,22.8931
2019-04-20T12:38:55.182Z,22.9652
2019-04-20T12:39:58.190Z,23.1788
2019-04-20T12:41:04.239Z,23.7716
2019-04-20T12:42:10.075Z,22.4819
2019-04-20T12:43:15.153Z,22.7943
2019-04-20T12:44:19.405Z,23.0480
2019-04-20T12:45:22.188Z,22.8931
2019-04-20T12:46:26.397Z,23.5740
2019-04-20T12:47:29.865Z,24.9172
2019-04-20T12:48:33.629Z,24.3244
2019-04-20T12:49:36.205Z,25.4540
2019-04-20T12:50:39.592Z,23.7850
2019-04-20T12:51:50.747Z,23.6862
2019-04-20T12:52:50.764Z,23.5447
2019-04-20T12:53:53.183Z,23.7423
2019-04-20T12:54:58.333Z,24.2817
2019-04-20T12:56:04.297Z,24.2096
2019-04-20T12:57:07.192Z,23.7716
2019-04-20T12:58:10.405Z,23.5874
2019-04-20T12:59:13.766Z,23.1067
2019-04-20T13:00:17.391Z,23.7850
2019-04-20T13:01:21.095Z,23.3898
2019-04-20T13:02:25.261Z,23.4886
2019-04-20T13:03:28.172Z,23.8571
2019-04-20T13:04:31.168Z,23.1628
2019-04-20T13:05:34.180Z,23.2189
2019-04-20T13:06:38.912Z,23.4886
2019-04-20T13:07:47.303Z,23.4031
2019-04-20T13:08:53.785Z,23.7583
2019-04-20T13:09:59.138Z,24.8878
2019-04-20T13:11:04.482Z,23.6168
2019-04-20T13:12:10.582Z,24.4633
2019-04-20T13:13:16.357Z,25.4540
2019-04-20T13:14:20.071Z,24.6208
2019-04-20T13:15:24.473Z,23.8277
2019-04-20T13:16:28.153Z,25.0294
2019-04-20T13:17:32.322Z,24.7757
2019-04-20T13:18:35.203Z,23.9132
2019-04-20T13:19:39.132Z,23.4726
2019-04-20T13:20:43.921Z,22.8931
2019-04-20T13:21:47.299Z,22.5994
2019-04-20T13:22:50.905Z,23.1228
2019-04-20T13:23:55.327Z,22.8931
2019-04-20T13:24:59.239Z,23.3604
2019-04-20T13:26:02.688Z,23.1495
2019-04-20T13:27:09.040Z,22.7943
2019-04-20T13:28:12.874Z,23.0667
2019-04-20T13:29:17.161Z,23.3471
2019-04-20T13:30:20.272Z,23.3043
2019-04-20T13:31:25.861Z,23.0346
2019-04-20T13:32:31.879Z,23.4886
2019-04-20T13:33:36.914Z,24.7330
2019-04-20T13:34:42.330Z,24.4499
2019-04-20T13:35:46.258Z,24.0520
2019-04-20T13:36:50.503Z,23.5447
2019-04-20T13:37:54.143Z,24.3938
2019-04-20T13:38:59.446Z,25.1015
2019-04-20T13:40:03.012Z,24.6502
2019-04-20T13:41:06.328Z,23.8010
2019-04-20T13:42:16.055Z,23.3043
2019-04-20T13:43:17.635Z,23.7716
2019-04-20T13:44:20.185Z,24.9039
2019-04-20T13:45:24.566Z,24.5941
2019-04-20T13:46:29.097Z,25.3979
2019-04-20T13:47:32.767Z,23.7583
2019-04-20T13:48:35.187Z,25.2003
2019-04-20T13:49:38.869Z,23.7583
2019-04-20T13:50:42.307Z,24.1962
2019-04-20T13:51:46.330Z,24.0120
2019-04-20T13:52:49.177Z,23.8411
2019-04-20T13:53:53.396Z,24.3645
2019-04-20T13:54:56.187Z,25.5982